sensor_id;sensor_type;location;lat;lon;timestamp;P1;durP1;ratioP1;P2;durP2;ratioP2
36445;SDS011;22472;50.848;-1.216;2022-08-11T00:00:59;2.78;;;0.80;;
36445;SDS011;22472;50.848;-1.216;2022-08-11T00:03:34;3.40;;;0.90;;
36445;SDS011;22472;50.848;-1.216;2022-08-11T00:06:07;4.60;;;1.00;;
36445;SDS011;22472;50.848;-1.216;2022-08-11T00:08:35;2.25;;;0.60;;
36445;SDS011;22472;50.848;-1.216;2022-08-11T00:11:05;4.22;;;0.60;;
36445;SDS011;22472;50.848;-1.216;2022-08-11T00:13:34;2.95;;;0.70;;
36445;SDS011;22472;50.848;-1.216;2022-08-11T00:16:12;4.50;;;0.80;;
36445;SDS011;22472;50.848;-1.216;2022-08-11T00:18:43;2.97;;;0.80;;
36445;SDS011;22472;50.848;-1.216;2022-08-11T00:21:11;3.67;;;0.80;;
36445;SDS011;22472;50.848;-1.216;2022-08-11T00:23:41;4.60;;;0.70;;
36445;SDS011;22472;50.848;-1.216;2022-08-11T00:26:10;3.23;;;0.63;;
36445;SDS011;22472;50.848;-1.216;2022-08-11T00:28:38;2.47;;;0.60;;
36445;SDS011;22472;50.848;-1.216;2022-08-11T00:31:06;3.05;;;0.90;;
36445;SDS011;22472;50.848;-1.216;2022-08-11T00:33:37;4.03;;;0.75;;
36445;SDS011;22472;50.848;-1.216;2022-08-11T00:36:08;3.42;;;0.65;;
36445;SDS011;22472;50.848;-1.216;2022-08-11T00:38:38;3.55;;;1.00;;
36445;SDS011;22472;50.848;-1.216;2022-08-11T00:41:15;3.05;;;0.60;;
36445;SDS011;22472;50.848;-1.216;2022-08-11T00:44:00;2.65;;;0.90;;
36445;SDS011;22472;50.848;-1.216;2022-08-11T00:46:41;5.15;;;0.80;;
36445;SDS011;22472;50.848;-1.216;2022-08-11T00:49:23;2.83;;;0.75;;
36445;SDS011;22472;50.848;-1.216;2022-08-11T00:52:05;2.22;;;0.98;;
36445;SDS011;22472;50.848;-1.216;2022-08-11T00:57:55;5.13;;;1.10;;
36445;SDS011;22472;50.848;-1.216;2022-08-11T01:01:08;3.63;;;1.02;;
36445;SDS011;22472;50.848;-1.216;2022-08-11T01:06:45;4.65;;;1.05;;
36445;SDS011;22472;50.848;-1.216;2022-08-11T01:12:28;3.70;;;1.05;;
36445;SDS011;22472;50.848;-1.216;2022-08-11T01:46:00;4.22;;;1.33;;
36445;SDS011;22472;50.848;-1.216;2022-08-11T01:48:38;4.07;;;1.20;;
36445;SDS011;22472;50.848;-1.216;2022-08-11T01:54:02;5.18;;;1.50;;
36445;SDS011;22472;50.848;-1.216;2022-08-11T01:56:34;3.35;;;1.70;;
36445;SDS011;22472;50.848;-1.216;2022-08-11T01:59:14;4.20;;;1.35;;
36445;SDS011;22472;50.848;-1.216;2022-08-11T02:01:51;3.40;;;1.45;;
36445;SDS011;22472;50.848;-1.216;2022-08-11T02:04:32;3.97;;;1.80;;
36445;SDS011;22472;50.848;-1.216;2022-08-11T02:07:08;5.07;;;1.83;;
36445;SDS011;22472;50.848;-1.216;2022-08-11T02:09:43;3.30;;;1.90;;
36445;SDS011;22472;50.848;-1.216;2022-08-11T02:12:49;5.50;;;1.73;;
36445;SDS011;22472;50.848;-1.216;2022-08-11T02:15:21;5.65;;;1.88;;
36445;SDS011;22472;50.848;-1.216;2022-08-11T02:17:58;4.22;;;1.63;;
36445;SDS011;22472;50.848;-1.216;2022-08-11T02:20:36;2.97;;;1.60;;
36445;SDS011;22472;50.848;-1.216;2022-08-11T02:23:30;2.85;;;1.60;;
36445;SDS011;22472;50.848;-1.216;2022-08-11T02:26:13;4.68;;;2.00;;
36445;SDS011;22472;50.848;-1.216;2022-08-11T02:28:50;4.32;;;1.63;;
36445;SDS011;22472;50.848;-1.216;2022-08-11T02:31:25;6.43;;;1.90;;
36445;SDS011;22472;50.848;-1.216;2022-08-11T02:34:20;5.05;;;1.80;;
36445;SDS011;22472;50.848;-1.216;2022-08-11T02:36:59;4.22;;;1.45;;
36445;SDS011;22472;50.848;-1.216;2022-08-11T02:39:35;3.35;;;1.40;;
36445;SDS011;22472;50.848;-1.216;2022-08-11T02:42:10;2.60;;;1.30;;
36445;SDS011;22472;50.848;-1.216;2022-08-11T02:44:58;2.97;;;1.55;;
36445;SDS011;22472;50.848;-1.216;2022-08-11T02:47:45;4.45;;;1.63;;
36445;SDS011;22472;50.848;-1.216;2022-08-11T02:50:34;3.42;;;1.77;;
36445;SDS011;22472;50.848;-1.216;2022-08-11T02:53:08;5.18;;;1.60;;
36445;SDS011;22472;50.848;-1.216;2022-08-11T02:55:43;4.90;;;1.58;;
36445;SDS011;22472;50.848;-1.216;2022-08-11T02:58:20;2.75;;;1.70;;
36445;SDS011;22472;50.848;-1.216;2022-08-11T03:01:02;2.83;;;1.70;;
36445;SDS011;22472;50.848;-1.216;2022-08-11T03:03:36;3.60;;;1.67;;
36445;SDS011;22472;50.848;-1.216;2022-08-11T03:06:23;3.20;;;1.70;;
36445;SDS011;22472;50.848;-1.216;2022-08-11T03:09:02;6.63;;;1.80;;
36445;SDS011;22472;50.848;-1.216;2022-08-11T03:11:41;3.95;;;1.60;;
36445;SDS011;22472;50.848;-1.216;2022-08-11T03:14:36;4.90;;;2.00;;
36445;SDS011;22472;50.848;-1.216;2022-08-11T03:17:32;3.60;;;1.80;;
36445;SDS011;22472;50.848;-1.216;2022-08-11T03:20:10;4.88;;;1.95;;
36445;SDS011;22472;50.848;-1.216;2022-08-11T03:22:52;5.57;;;2.28;;
36445;SDS011;22472;50.848;-1.216;2022-08-11T03:25:29;4.15;;;1.73;;
36445;SDS011;22472;50.848;-1.216;2022-08-11T03:28:08;8.60;;;2.10;;
36445;SDS011;22472;50.848;-1.216;2022-08-11T03:30:45;7.03;;;2.10;;
36445;SDS011;22472;50.848;-1.216;2022-08-11T03:33:20;6.97;;;2.10;;
36445;SDS011;22472;50.848;-1.216;2022-08-11T03:36:21;2.88;;;1.60;;
36445;SDS011;22472;50.848;-1.216;2022-08-11T03:39:11;6.05;;;2.00;;
36445;SDS011;22472;50.848;-1.216;2022-08-11T03:41:48;6.97;;;1.80;;
36445;SDS011;22472;50.848;-1.216;2022-08-11T03:44:27;5.60;;;1.95;;
36445;SDS011;22472;50.848;-1.216;2022-08-11T03:47:17;5.60;;;2.25;;
36445;SDS011;22472;50.848;-1.216;2022-08-11T03:50:04;5.18;;;2.05;;
36445;SDS011;22472;50.848;-1.216;2022-08-11T03:52:46;5.32;;;2.20;;
36445;SDS011;22472;50.848;-1.216;2022-08-11T03:55:22;4.85;;;1.85;;
36445;SDS011;22472;50.848;-1.216;2022-08-11T03:58:18;3.72;;;1.90;;
36445;SDS011;22472;50.848;-1.216;2022-08-11T04:04:17;5.82;;;2.10;;
36445;SDS011;22472;50.848;-1.216;2022-08-11T04:10:36;8.23;;;2.42;;
36445;SDS011;22472;50.848;-1.216;2022-08-11T04:13:34;5.97;;;2.05;;
36445;SDS011;22472;50.848;-1.216;2022-08-11T04:16:43;11.32;;;2.78;;
36445;SDS011;22472;50.848;-1.216;2022-08-11T04:22:30;7.60;;;2.70;;
36445;SDS011;22472;50.848;-1.216;2022-08-11T04:25:27;11.55;;;3.00;;
36445;SDS011;22472;50.848;-1.216;2022-08-11T04:31:06;8.88;;;2.47;;
36445;SDS011;22472;50.848;-1.216;2022-08-11T04:36:46;10.55;;;2.60;;
36445;SDS011;22472;50.848;-1.216;2022-08-11T04:39:59;6.68;;;2.50;;
36445;SDS011;22472;50.848;-1.216;2022-08-11T04:48:42;8.10;;;2.80;;
36445;SDS011;22472;50.848;-1.216;2022-08-11T04:52:08;7.43;;;2.67;;
36445;SDS011;22472;50.848;-1.216;2022-08-11T04:55:13;6.72;;;2.40;;
36445;SDS011;22472;50.848;-1.216;2022-08-11T04:58:29;7.65;;;2.53;;
36445;SDS011;22472;50.848;-1.216;2022-08-11T05:01:31;4.43;;;2.50;;
36445;SDS011;22472;50.848;-1.216;2022-08-11T05:07:49;6.25;;;2.50;;
36445;SDS011;22472;50.848;-1.216;2022-08-11T05:11:02;7.30;;;2.78;;
36445;SDS011;22472;50.848;-1.216;2022-08-11T05:13:46;5.93;;;2.97;;
36445;SDS011;22472;50.848;-1.216;2022-08-11T05:16:34;7.15;;;3.10;;
36445;SDS011;22472;50.848;-1.216;2022-08-11T05:19:43;7.47;;;3.15;;
36445;SDS011;22472;50.848;-1.216;2022-08-11T05:22:28;5.22;;;2.92;;
36445;SDS011;22472;50.848;-1.216;2022-08-11T05:25:14;5.15;;;3.47;;
36445;SDS011;22472;50.848;-1.216;2022-08-11T05:28:02;5.70;;;3.35;;
36445;SDS011;22472;50.848;-1.216;2022-08-11T05:30:53;7.88;;;3.20;;
36445;SDS011;22472;50.848;-1.216;2022-08-11T05:33:44;7.47;;;2.85;;
36445;SDS011;22472;50.848;-1.216;2022-08-11T05:36:36;5.22;;;2.80;;
36445;SDS011;22472;50.848;-1.216;2022-08-11T05:39:12;6.72;;;3.38;;
36445;SDS011;22472;50.848;-1.216;2022-08-11T05:41:59;7.75;;;3.20;;
36445;SDS011;22472;50.848;-1.216;2022-08-11T05:44:45;6.10;;;3.20;;
36445;SDS011;22472;50.848;-1.216;2022-08-11T05:47:32;4.93;;;2.95;;
36445;SDS011;22472;50.848;-1.216;2022-08-11T05:50:19;8.07;;;3.40;;
36445;SDS011;22472;50.848;-1.216;2022-08-11T05:53:07;10.10;;;3.67;;
36445;SDS011;22472;50.848;-1.216;2022-08-11T05:55:55;6.28;;;2.78;;
36445;SDS011;22472;50.848;-1.216;2022-08-11T05:58:41;6.88;;;3.30;;
36445;SDS011;22472;50.848;-1.216;2022-08-11T06:01:10;5.32;;;3.40;;
36445;SDS011;22472;50.848;-1.216;2022-08-11T06:03:41;9.88;;;3.70;;
36445;SDS011;22472;50.848;-1.216;2022-08-11T06:06:27;9.07;;;3.70;;
36445;SDS011;22472;50.848;-1.216;2022-08-11T06:08:55;9.52;;;3.58;;
36445;SDS011;22472;50.848;-1.216;2022-08-11T06:11:23;8.10;;;3.17;;
36445;SDS011;22472;50.848;-1.216;2022-08-11T06:13:51;7.03;;;3.20;;
36445;SDS011;22472;50.848;-1.216;2022-08-11T06:16:20;5.43;;;3.05;;
36445;SDS011;22472;50.848;-1.216;2022-08-11T06:18:50;7.97;;;3.90;;
36445;SDS011;22472;50.848;-1.216;2022-08-11T06:21:17;6.75;;;3.47;;
36445;SDS011;22472;50.848;-1.216;2022-08-11T06:23:46;5.20;;;3.15;;
36445;SDS011;22472;50.848;-1.216;2022-08-11T06:26:14;8.70;;;3.75;;
36445;SDS011;22472;50.848;-1.216;2022-08-11T06:28:42;11.40;;;3.40;;
36445;SDS011;22472;50.848;-1.216;2022-08-11T06:31:11;9.25;;;3.47;;
36445;SDS011;22472;50.848;-1.216;2022-08-11T06:33:45;9.23;;;3.83;;
36445;SDS011;22472;50.848;-1.216;2022-08-11T06:36:21;10.10;;;3.95;;
36445;SDS011;22472;50.848;-1.216;2022-08-11T06:39:01;10.40;;;3.10;;
36445;SDS011;22472;50.848;-1.216;2022-08-11T06:41:39;6.10;;;2.88;;
36445;SDS011;22472;50.848;-1.216;2022-08-11T06:44:16;9.98;;;3.38;;
36445;SDS011;22472;50.848;-1.216;2022-08-11T06:46:49;8.93;;;3.58;;
36445;SDS011;22472;50.848;-1.216;2022-08-11T06:49:19;5.53;;;2.78;;
36445;SDS011;22472;50.848;-1.216;2022-08-11T06:52:05;7.93;;;3.03;;
36445;SDS011;22472;50.848;-1.216;2022-08-11T06:54:39;6.88;;;3.40;;
36445;SDS011;22472;50.848;-1.216;2022-08-11T06:57:10;5.80;;;3.00;;
36445;SDS011;22472;50.848;-1.216;2022-08-11T06:59:56;7.63;;;3.17;;
36445;SDS011;22472;50.848;-1.216;2022-08-11T07:02:44;6.10;;;2.85;;
36445;SDS011;22472;50.848;-1.216;2022-08-11T07:05:16;8.05;;;2.92;;
36445;SDS011;22472;50.848;-1.216;2022-08-11T07:11:25;8.23;;;2.80;;
36445;SDS011;22472;50.848;-1.216;2022-08-11T07:14:29;8.02;;;2.85;;
36445;SDS011;22472;50.848;-1.216;2022-08-11T07:17:15;6.88;;;2.50;;
36445;SDS011;22472;50.848;-1.216;2022-08-11T07:19:47;7.93;;;2.30;;
36445;SDS011;22472;50.848;-1.216;2022-08-11T07:22:36;5.55;;;2.20;;
36445;SDS011;22472;50.848;-1.216;2022-08-11T07:25:21;6.72;;;2.35;;
36445;SDS011;22472;50.848;-1.216;2022-08-11T07:28:09;4.80;;;2.20;;
36445;SDS011;22472;50.848;-1.216;2022-08-11T07:31:03;6.22;;;2.03;;
36445;SDS011;22472;50.848;-1.216;2022-08-11T07:33:38;5.13;;;2.05;;
36445;SDS011;22472;50.848;-1.216;2022-08-11T07:36:09;5.63;;;1.77;;
36445;SDS011;22472;50.848;-1.216;2022-08-11T07:38:40;5.20;;;1.77;;
36445;SDS011;22472;50.848;-1.216;2022-08-11T07:41:10;3.95;;;1.73;;
36445;SDS011;22472;50.848;-1.216;2022-08-11T07:43:39;3.42;;;1.60;;
36445;SDS011;22472;50.848;-1.216;2022-08-11T07:46:07;6.10;;;1.83;;
36445;SDS011;22472;50.848;-1.216;2022-08-11T07:48:54;8.80;;;2.65;;
36445;SDS011;22472;50.848;-1.216;2022-08-11T07:51:40;6.55;;;2.00;;
36445;SDS011;22472;50.848;-1.216;2022-08-11T07:54:27;4.93;;;1.83;;
36445;SDS011;22472;50.848;-1.216;2022-08-11T07:56:55;6.60;;;1.80;;
36445;SDS011;22472;50.848;-1.216;2022-08-11T07:59:24;5.40;;;1.60;;
36445;SDS011;22472;50.848;-1.216;2022-08-11T08:02:10;5.88;;;1.58;;
36445;SDS011;22472;50.848;-1.216;2022-08-11T08:04:56;5.90;;;1.80;;
36445;SDS011;22472;50.848;-1.216;2022-08-11T08:07:41;5.22;;;1.75;;
36445;SDS011;22472;50.848;-1.216;2022-08-11T08:10:27;5.60;;;1.40;;
36445;SDS011;22472;50.848;-1.216;2022-08-11T08:13:14;4.93;;;1.55;;
36445;SDS011;22472;50.848;-1.216;2022-08-11T08:15:59;5.10;;;1.10;;
36445;SDS011;22472;50.848;-1.216;2022-08-11T08:18:44;6.85;;;1.30;;
36445;SDS011;22472;50.848;-1.216;2022-08-11T08:21:12;5.88;;;1.40;;
36445;SDS011;22472;50.848;-1.216;2022-08-11T08:23:41;4.10;;;1.20;;
36445;SDS011;22472;50.848;-1.216;2022-08-11T08:26:11;4.63;;;1.50;;
36445;SDS011;22472;50.848;-1.216;2022-08-11T08:28:53;3.45;;;1.23;;
36445;SDS011;22472;50.848;-1.216;2022-08-11T08:31:42;4.63;;;1.20;;
36445;SDS011;22472;50.848;-1.216;2022-08-11T08:34:10;3.85;;;0.80;;
36445;SDS011;22472;50.848;-1.216;2022-08-11T08:36:41;5.18;;;1.02;;
36445;SDS011;22472;50.848;-1.216;2022-08-11T08:39:09;3.90;;;0.90;;
36445;SDS011;22472;50.848;-1.216;2022-08-11T08:41:39;5.18;;;0.90;;
36445;SDS011;22472;50.848;-1.216;2022-08-11T08:44:09;9.20;;;1.00;;
36445;SDS011;22472;50.848;-1.216;2022-08-11T08:49:07;3.17;;;0.85;;
36445;SDS011;22472;50.848;-1.216;2022-08-11T08:51:40;3.92;;;0.70;;
36445;SDS011;22472;50.848;-1.216;2022-08-11T08:54:09;5.38;;;0.80;;
36445;SDS011;22472;50.848;-1.216;2022-08-11T08:56:43;3.53;;;0.70;;
36445;SDS011;22472;50.848;-1.216;2022-08-11T08:59:12;1.95;;;0.70;;
36445;SDS011;22472;50.848;-1.216;2022-08-11T09:01:41;3.72;;;0.75;;
36445;SDS011;22472;50.848;-1.216;2022-08-11T09:04:13;6.95;;;0.90;;
36445;SDS011;22472;50.848;-1.216;2022-08-11T09:06:42;4.22;;;0.73;;
36445;SDS011;22472;50.848;-1.216;2022-08-11T09:09:10;2.65;;;0.70;;
36445;SDS011;22472;50.848;-1.216;2022-08-11T09:11:38;5.15;;;0.93;;
36445;SDS011;22472;50.848;-1.216;2022-08-11T09:14:25;2.78;;;0.60;;
36445;SDS011;22472;50.848;-1.216;2022-08-11T09:17:12;2.35;;;0.52;;
36445;SDS011;22472;50.848;-1.216;2022-08-11T09:19:39;4.55;;;0.82;;
36445;SDS011;22472;50.848;-1.216;2022-08-11T09:22:07;3.00;;;0.70;;
36445;SDS011;22472;50.848;-1.216;2022-08-11T09:24:51;1.60;;;0.70;;
36445;SDS011;22472;50.848;-1.216;2022-08-11T09:27:38;2.60;;;0.68;;
36445;SDS011;22472;50.848;-1.216;2022-08-11T09:30:08;1.60;;;0.63;;
36445;SDS011;22472;50.848;-1.216;2022-08-11T09:32:37;5.03;;;0.70;;
36445;SDS011;22472;50.848;-1.216;2022-08-11T09:35:06;2.38;;;0.90;;
36445;SDS011;22472;50.848;-1.216;2022-08-11T09:37:34;2.88;;;0.60;;
36445;SDS011;22472;50.848;-1.216;2022-08-11T09:40:20;6.25;;;0.80;;
36445;SDS011;22472;50.848;-1.216;2022-08-11T09:42:54;6.55;;;0.90;;
36445;SDS011;22472;50.848;-1.216;2022-08-11T09:45:40;2.45;;;0.70;;
36445;SDS011;22472;50.848;-1.216;2022-08-11T09:48:14;2.20;;;0.60;;
36445;SDS011;22472;50.848;-1.216;2022-08-11T09:50:43;3.08;;;1.00;;
36445;SDS011;22472;50.848;-1.216;2022-08-11T09:53:11;4.63;;;0.75;;
36445;SDS011;22472;50.848;-1.216;2022-08-11T09:55:40;4.57;;;0.80;;
36445;SDS011;22472;50.848;-1.216;2022-08-11T09:58:09;2.08;;;0.70;;
36445;SDS011;22472;50.848;-1.216;2022-08-11T10:03:09;4.55;;;0.90;;
36445;SDS011;22472;50.848;-1.216;2022-08-11T10:05:38;3.80;;;0.82;;
36445;SDS011;22472;50.848;-1.216;2022-08-11T10:08:27;2.88;;;0.73;;
36445;SDS011;22472;50.848;-1.216;2022-08-11T10:10:57;4.63;;;0.93;;
36445;SDS011;22472;50.848;-1.216;2022-08-11T10:13:28;3.03;;;0.80;;
36445;SDS011;22472;50.848;-1.216;2022-08-11T10:16:00;3.83;;;0.88;;
36445;SDS011;22472;50.848;-1.216;2022-08-11T10:18:32;5.65;;;1.00;;
36445;SDS011;22472;50.848;-1.216;2022-08-11T10:21:08;3.25;;;0.90;;
36445;SDS011;22472;50.848;-1.216;2022-08-11T10:23:38;2.63;;;1.10;;
36445;SDS011;22472;50.848;-1.216;2022-08-11T10:26:23;3.30;;;0.93;;
36445;SDS011;22472;50.848;-1.216;2022-08-11T10:29:11;3.30;;;0.85;;
36445;SDS011;22472;50.848;-1.216;2022-08-11T10:31:58;3.75;;;1.08;;
36445;SDS011;22472;50.848;-1.216;2022-08-11T10:34:44;2.08;;;1.17;;
36445;SDS011;22472;50.848;-1.216;2022-08-11T10:37:14;4.30;;;1.08;;
36445;SDS011;22472;50.848;-1.216;2022-08-11T10:39:42;3.42;;;1.13;;
36445;SDS011;22472;50.848;-1.216;2022-08-11T10:44:56;5.60;;;1.13;;
36445;SDS011;22472;50.848;-1.216;2022-08-11T10:47:27;5.13;;;1.10;;
36445;SDS011;22472;50.848;-1.216;2022-08-11T10:49:59;3.00;;;0.88;;
36445;SDS011;22472;50.848;-1.216;2022-08-11T10:52:46;2.25;;;0.98;;
36445;SDS011;22472;50.848;-1.216;2022-08-11T10:55:32;2.55;;;0.95;;
36445;SDS011;22472;50.848;-1.216;2022-08-11T10:58:18;8.85;;;1.50;;
36445;SDS011;22472;50.848;-1.216;2022-08-11T11:01:03;4.22;;;1.45;;
36445;SDS011;22472;50.848;-1.216;2022-08-11T11:03:32;1.63;;;0.85;;
36445;SDS011;22472;50.848;-1.216;2022-08-11T11:06:03;2.92;;;1.35;;
36445;SDS011;22472;50.848;-1.216;2022-08-11T11:08:36;4.40;;;1.35;;
36445;SDS011;22472;50.848;-1.216;2022-08-11T11:11:20;3.17;;;1.00;;
36445;SDS011;22472;50.848;-1.216;2022-08-11T11:14:09;3.65;;;0.90;;
36445;SDS011;22472;50.848;-1.216;2022-08-11T11:16:55;1.27;;;0.77;;
36445;SDS011;22472;50.848;-1.216;2022-08-11T11:19:41;4.25;;;1.10;;
36445;SDS011;22472;50.848;-1.216;2022-08-11T11:22:09;3.40;;;1.05;;
36445;SDS011;22472;50.848;-1.216;2022-08-11T11:24:59;3.95;;;0.98;;
36445;SDS011;22472;50.848;-1.216;2022-08-11T11:27:35;3.50;;;0.88;;
36445;SDS011;22472;50.848;-1.216;2022-08-11T11:30:11;5.40;;;0.88;;
36445;SDS011;22472;50.848;-1.216;2022-08-11T11:32:41;4.40;;;0.90;;
36445;SDS011;22472;50.848;-1.216;2022-08-11T11:35:28;3.80;;;0.80;;
36445;SDS011;22472;50.848;-1.216;2022-08-11T11:38:01;5.70;;;1.00;;
36445;SDS011;22472;50.848;-1.216;2022-08-11T11:40:33;2.08;;;0.75;;
36445;SDS011;22472;50.848;-1.216;2022-08-11T11:43:02;4.95;;;1.00;;
36445;SDS011;22472;50.848;-1.216;2022-08-11T11:45:30;2.67;;;0.80;;
36445;SDS011;22472;50.848;-1.216;2022-08-11T11:47:58;2.45;;;1.05;;
36445;SDS011;22472;50.848;-1.216;2022-08-11T11:50:28;3.92;;;0.93;;
36445;SDS011;22472;50.848;-1.216;2022-08-11T11:52:57;2.42;;;0.77;;
36445;SDS011;22472;50.848;-1.216;2022-08-11T11:55:25;1.38;;;0.70;;
36445;SDS011;22472;50.848;-1.216;2022-08-11T11:57:54;1.65;;;0.60;;
36445;SDS011;22472;50.848;-1.216;2022-08-11T12:00:42;2.50;;;1.00;;
36445;SDS011;22472;50.848;-1.216;2022-08-11T12:03:38;4.05;;;0.65;;
36445;SDS011;22472;50.848;-1.216;2022-08-11T12:06:08;3.60;;;0.68;;
36445;SDS011;22472;50.848;-1.216;2022-08-11T12:08:38;4.63;;;0.75;;
36445;SDS011;22472;50.848;-1.216;2022-08-11T12:11:09;1.58;;;0.60;;
36445;SDS011;22472;50.848;-1.216;2022-08-11T12:13:56;3.25;;;1.02;;
36445;SDS011;22472;50.848;-1.216;2022-08-11T12:16:25;2.33;;;0.50;;
36445;SDS011;22472;50.848;-1.216;2022-08-11T12:18:54;3.08;;;0.80;;
36445;SDS011;22472;50.848;-1.216;2022-08-11T12:21:24;3.00;;;0.90;;
36445;SDS011;22472;50.848;-1.216;2022-08-11T12:23:54;3.38;;;0.82;;
36445;SDS011;22472;50.848;-1.216;2022-08-11T12:26:39;2.28;;;0.80;;
36445;SDS011;22472;50.848;-1.216;2022-08-11T12:29:26;1.63;;;0.70;;
36445;SDS011;22472;50.848;-1.216;2022-08-11T12:31:53;4.53;;;0.87;;
36445;SDS011;22472;50.848;-1.216;2022-08-11T12:34:23;1.60;;;0.70;;
36445;SDS011;22472;50.848;-1.216;2022-08-11T12:36:56;2.47;;;0.60;;
36445;SDS011;22472;50.848;-1.216;2022-08-11T12:39:26;4.32;;;0.80;;
36445;SDS011;22472;50.848;-1.216;2022-08-11T12:42:18;2.90;;;0.70;;
36445;SDS011;22472;50.848;-1.216;2022-08-11T12:45:03;2.67;;;0.77;;
36445;SDS011;22472;50.848;-1.216;2022-08-11T12:48:00;2.22;;;0.70;;
36445;SDS011;22472;50.848;-1.216;2022-08-11T12:50:51;1.92;;;0.65;;
36445;SDS011;22472;50.848;-1.216;2022-08-11T12:53:42;2.60;;;0.80;;
36445;SDS011;22472;50.848;-1.216;2022-08-11T12:56:17;4.00;;;0.75;;
36445;SDS011;22472;50.848;-1.216;2022-08-11T12:59:02;3.22;;;0.80;;
36445;SDS011;22472;50.848;-1.216;2022-08-11T13:01:49;1.90;;;0.73;;
36445;SDS011;22472;50.848;-1.216;2022-08-11T13:04:34;2.45;;;0.80;;
36445;SDS011;22472;50.848;-1.216;2022-08-11T13:07:23;17.15;;;1.05;;
36445;SDS011;22472;50.848;-1.216;2022-08-11T13:09:53;3.60;;;0.68;;
36445;SDS011;22472;50.848;-1.216;2022-08-11T13:12:21;4.18;;;0.85;;
36445;SDS011;22472;50.848;-1.216;2022-08-11T13:15:08;1.88;;;0.55;;
36445;SDS011;22472;50.848;-1.216;2022-08-11T13:17:36;3.83;;;0.80;;
36445;SDS011;22472;50.848;-1.216;2022-08-11T13:20:06;3.42;;;0.77;;
36445;SDS011;22472;50.848;-1.216;2022-08-11T13:22:36;3.35;;;0.50;;
36445;SDS011;22472;50.848;-1.216;2022-08-11T13:25:11;3.25;;;0.73;;
36445;SDS011;22472;50.848;-1.216;2022-08-11T13:27:41;1.67;;;0.77;;
36445;SDS011;22472;50.848;-1.216;2022-08-11T13:30:10;3.13;;;0.60;;
36445;SDS011;22472;50.848;-1.216;2022-08-11T13:32:56;2.50;;;0.65;;
36445;SDS011;22472;50.848;-1.216;2022-08-11T13:35:25;2.78;;;0.63;;
36445;SDS011;22472;50.848;-1.216;2022-08-11T13:37:53;1.67;;;0.70;;
36445;SDS011;22472;50.848;-1.216;2022-08-11T13:40:23;4.40;;;0.70;;
36445;SDS011;22472;50.848;-1.216;2022-08-11T13:42:50;2.97;;;0.70;;
36445;SDS011;22472;50.848;-1.216;2022-08-11T13:45:19;2.88;;;0.80;;
36445;SDS011;22472;50.848;-1.216;2022-08-11T13:47:48;2.22;;;0.50;;
36445;SDS011;22472;50.848;-1.216;2022-08-11T13:50:18;1.70;;;0.52;;
36445;SDS011;22472;50.848;-1.216;2022-08-11T13:52:46;2.90;;;0.70;;
36445;SDS011;22472;50.848;-1.216;2022-08-11T13:55:15;3.72;;;0.88;;
36445;SDS011;22472;50.848;-1.216;2022-08-11T13:57:49;3.08;;;0.90;;
36445;SDS011;22472;50.848;-1.216;2022-08-11T14:00:18;4.03;;;0.80;;
36445;SDS011;22472;50.848;-1.216;2022-08-11T14:02:47;3.20;;;0.73;;
36445;SDS011;22472;50.848;-1.216;2022-08-11T14:05:17;3.92;;;0.90;;
36445;SDS011;22472;50.848;-1.216;2022-08-11T14:07:51;1.80;;;0.80;;
36445;SDS011;22472;50.848;-1.216;2022-08-11T14:10:26;2.85;;;0.60;;
36445;SDS011;22472;50.848;-1.216;2022-08-11T14:12:57;2.10;;;0.70;;
36445;SDS011;22472;50.848;-1.216;2022-08-11T14:18:12;3.55;;;0.70;;
36445;SDS011;22472;50.848;-1.216;2022-08-11T14:20:43;5.63;;;0.70;;
36445;SDS011;22472;50.848;-1.216;2022-08-11T14:23:34;2.40;;;0.60;;
36445;SDS011;22472;50.848;-1.216;2022-08-11T14:26:04;2.58;;;0.90;;
36445;SDS011;22472;50.848;-1.216;2022-08-11T14:28:52;6.45;;;0.85;;
36445;SDS011;22472;50.848;-1.216;2022-08-11T14:31:22;4.00;;;0.90;;
36445;SDS011;22472;50.848;-1.216;2022-08-11T14:33:51;3.80;;;0.80;;
36445;SDS011;22472;50.848;-1.216;2022-08-11T14:36:21;2.10;;;0.60;;
36445;SDS011;22472;50.848;-1.216;2022-08-11T14:38:49;2.85;;;0.90;;
36445;SDS011;22472;50.848;-1.216;2022-08-11T14:41:18;2.03;;;0.70;;
36445;SDS011;22472;50.848;-1.216;2022-08-11T14:44:05;2.65;;;0.70;;
36445;SDS011;22472;50.848;-1.216;2022-08-11T14:46:51;1.73;;;0.68;;
36445;SDS011;22472;50.848;-1.216;2022-08-11T14:49:31;2.10;;;0.60;;
36445;SDS011;22472;50.848;-1.216;2022-08-11T14:52:00;2.13;;;0.60;;
36445;SDS011;22472;50.848;-1.216;2022-08-11T14:54:30;3.67;;;0.70;;
36445;SDS011;22472;50.848;-1.216;2022-08-11T14:57:15;2.95;;;0.60;;
36445;SDS011;22472;50.848;-1.216;2022-08-11T14:59:45;4.30;;;0.70;;
36445;SDS011;22472;50.848;-1.216;2022-08-11T15:02:13;3.08;;;0.50;;
36445;SDS011;22472;50.848;-1.216;2022-08-11T15:05:01;1.95;;;0.70;;
36445;SDS011;22472;50.848;-1.216;2022-08-11T15:07:30;4.00;;;0.70;;
36445;SDS011;22472;50.848;-1.216;2022-08-11T15:09:59;2.03;;;0.80;;
36445;SDS011;22472;50.848;-1.216;2022-08-11T15:12:28;3.38;;;0.63;;
36445;SDS011;22472;50.848;-1.216;2022-08-11T15:14:57;3.20;;;0.60;;
36445;SDS011;22472;50.848;-1.216;2022-08-11T15:17:43;3.30;;;0.65;;
36445;SDS011;22472;50.848;-1.216;2022-08-11T15:20:13;1.50;;;0.77;;
36445;SDS011;22472;50.848;-1.216;2022-08-11T15:22:59;6.07;;;1.00;;
36445;SDS011;22472;50.848;-1.216;2022-08-11T15:25:44;1.15;;;0.55;;
36445;SDS011;22472;50.848;-1.216;2022-08-11T15:28:15;3.20;;;1.05;;
36445;SDS011;22472;50.848;-1.216;2022-08-11T15:31:04;2.87;;;1.70;;
36445;SDS011;22472;50.848;-1.216;2022-08-11T15:34:01;3.45;;;1.40;;
36445;SDS011;22472;50.848;-1.216;2022-08-11T15:36:48;4.50;;;1.70;;
36445;SDS011;22472;50.848;-1.216;2022-08-11T15:39:40;2.60;;;1.25;;
36445;SDS011;22472;50.848;-1.216;2022-08-11T15:42:26;2.58;;;0.70;;
36445;SDS011;22472;50.848;-1.216;2022-08-11T15:45:13;1.67;;;0.60;;
36445;SDS011;22472;50.848;-1.216;2022-08-11T15:48:05;5.00;;;0.75;;
36445;SDS011;22472;50.848;-1.216;2022-08-11T15:50:36;2.22;;;0.60;;
36445;SDS011;22472;50.848;-1.216;2022-08-11T15:53:07;2.53;;;0.70;;
36445;SDS011;22472;50.848;-1.216;2022-08-11T15:55:43;2.75;;;0.60;;
36445;SDS011;22472;50.848;-1.216;2022-08-11T15:58:11;1.73;;;0.50;;
36445;SDS011;22472;50.848;-1.216;2022-08-11T16:00:57;2.00;;;0.70;;
36445;SDS011;22472;50.848;-1.216;2022-08-11T16:03:49;2.50;;;0.60;;
36445;SDS011;22472;50.848;-1.216;2022-08-11T16:06:40;1.45;;;0.50;;
36445;SDS011;22472;50.848;-1.216;2022-08-11T16:09:27;1.85;;;0.75;;
36445;SDS011;22472;50.848;-1.216;2022-08-11T16:11:58;2.08;;;0.60;;
36445;SDS011;22472;50.848;-1.216;2022-08-11T16:14:29;2.30;;;0.82;;
36445;SDS011;22472;50.848;-1.216;2022-08-11T16:17:29;3.03;;;0.70;;
36445;SDS011;22472;50.848;-1.216;2022-08-11T16:20:01;2.75;;;0.55;;
36445;SDS011;22472;50.848;-1.216;2022-08-11T16:22:29;2.40;;;0.70;;
36445;SDS011;22472;50.848;-1.216;2022-08-11T16:25:03;2.20;;;0.57;;
36445;SDS011;22472;50.848;-1.216;2022-08-11T16:30:00;2.00;;;0.50;;
36445;SDS011;22472;50.848;-1.216;2022-08-11T16:34:58;2.40;;;0.65;;
36445;SDS011;22472;50.848;-1.216;2022-08-11T16:37:46;2.22;;;0.60;;
36445;SDS011;22472;50.848;-1.216;2022-08-11T16:40:31;2.45;;;0.57;;
36445;SDS011;22472;50.848;-1.216;2022-08-11T16:42:59;1.48;;;0.65;;
36445;SDS011;22472;50.848;-1.216;2022-08-11T16:45:46;2.17;;;0.60;;
36445;SDS011;22472;50.848;-1.216;2022-08-11T16:48:33;2.97;;;0.60;;
36445;SDS011;22472;50.848;-1.216;2022-08-11T16:51:02;2.08;;;0.73;;
36445;SDS011;22472;50.848;-1.216;2022-08-11T16:53:30;2.03;;;0.75;;
36445;SDS011;22472;50.848;-1.216;2022-08-11T16:55:58;2.20;;;0.75;;
36445;SDS011;22472;50.848;-1.216;2022-08-11T16:58:29;2.22;;;0.75;;
36445;SDS011;22472;50.848;-1.216;2022-08-11T17:01:17;2.53;;;0.60;;
36445;SDS011;22472;50.848;-1.216;2022-08-11T17:03:50;2.22;;;0.80;;
36445;SDS011;22472;50.848;-1.216;2022-08-11T17:06:39;2.30;;;0.70;;